sensor_id;sensor_type;location;lat;lon;timestamp;temperature;humidity
52656;SHT85;35474;51.032;6.998;2022-07-26T00:00:34;20.41;61.08
52656;SHT85;35474;51.032;6.998;2022-07-26T00:03:01;20.41;61.10
52656;SHT85;35474;51.032;6.998;2022-07-26T00:05:27;20.35;61.32
52656;SHT85;35474;51.032;6.998;2022-07-26T00:07:55;20.22;61.77
52656;SHT85;35474;51.032;6.998;2022-07-26T00:10:37;20.18;61.87
52656;SHT85;35474;51.032;6.998;2022-07-26T00:13:08;20.13;62.11
52656;SHT85;35474;51.032;6.998;2022-07-26T00:15:35;20.11;62.43
52656;SHT85;35474;51.032;6.998;2022-07-26T00:18:02;20.15;62.24
52656;SHT85;35474;51.032;6.998;2022-07-26T00:20:29;20.10;62.34
52656;SHT85;35474;51.032;6.998;2022-07-26T00:22:57;20.11;62.36
52656;SHT85;35474;51.032;6.998;2022-07-26T00:25:23;20.07;62.43
52656;SHT85;35474;51.032;6.998;2022-07-26T00:27:50;20.01;62.64
52656;SHT85;35474;51.032;6.998;2022-07-26T00:30:16;19.98;62.87
52656;SHT85;35474;51.032;6.998;2022-07-26T00:32:43;19.95;62.97
52656;SHT85;35474;51.032;6.998;2022-07-26T00:35:10;19.95;63.16
52656;SHT85;35474;51.032;6.998;2022-07-26T00:37:37;19.85;63.46
52656;SHT85;35474;51.032;6.998;2022-07-26T00:40:05;19.94;63.24
52656;SHT85;35474;51.032;6.998;2022-07-26T00:42:34;19.90;63.51
52656;SHT85;35474;51.032;6.998;2022-07-26T00:45:00;19.84;63.67
52656;SHT85;35474;51.032;6.998;2022-07-26T00:47:27;19.73;64.34
52656;SHT85;35474;51.032;6.998;2022-07-26T00:49:53;19.73;64.29
52656;SHT85;35474;51.032;6.998;2022-07-26T00:52:20;19.80;64.37
52656;SHT85;35474;51.032;6.998;2022-07-26T00:54:47;19.77;64.54
52656;SHT85;35474;51.032;6.998;2022-07-26T00:57:14;19.74;64.76
52656;SHT85;35474;51.032;6.998;2022-07-26T00:59:41;19.87;64.31
52656;SHT85;35474;51.032;6.998;2022-07-26T01:02:08;19.93;64.32
52656;SHT85;35474;51.032;6.998;2022-07-26T01:04:35;19.62;65.21
52656;SHT85;35474;51.032;6.998;2022-07-26T01:07:02;19.47;65.78
52656;SHT85;35474;51.032;6.998;2022-07-26T01:09:41;19.43;66.09
52656;SHT85;35474;51.032;6.998;2022-07-26T01:12:08;19.43;66.27
52656;SHT85;35474;51.032;6.998;2022-07-26T01:14:35;19.35;66.56
52656;SHT85;35474;51.032;6.998;2022-07-26T01:17:02;19.38;66.58
52656;SHT85;35474;51.032;6.998;2022-07-26T01:19:28;19.25;67.03
52656;SHT85;35474;51.032;6.998;2022-07-26T01:21:55;19.22;67.14
52656;SHT85;35474;51.032;6.998;2022-07-26T01:24:21;19.18;67.21
52656;SHT85;35474;51.032;6.998;2022-07-26T01:26:48;19.15;67.51
52656;SHT85;35474;51.032;6.998;2022-07-26T01:29:15;19.15;67.17
52656;SHT85;35474;51.032;6.998;2022-07-26T01:31:41;19.06;67.20
52656;SHT85;35474;51.032;6.998;2022-07-26T01:34:08;19.05;67.61
52656;SHT85;35474;51.032;6.998;2022-07-26T01:36:35;19.02;67.59
52656;SHT85;35474;51.032;6.998;2022-07-26T01:39:05;18.97;67.66
52656;SHT85;35474;51.032;6.998;2022-07-26T01:41:31;18.92;67.80
52656;SHT85;35474;51.032;6.998;2022-07-26T01:44:04;18.95;67.76
52656;SHT85;35474;51.032;6.998;2022-07-26T01:46:33;18.89;68.02
52656;SHT85;35474;51.032;6.998;2022-07-26T01:49:00;18.83;68.47
52656;SHT85;35474;51.032;6.998;2022-07-26T01:51:27;18.77;68.49
52656;SHT85;35474;51.032;6.998;2022-07-26T01:53:54;18.85;68.27
52656;SHT85;35474;51.032;6.998;2022-07-26T01:56:21;18.78;68.47
52656;SHT85;35474;51.032;6.998;2022-07-26T01:58:48;18.73;68.79
52656;SHT85;35474;51.032;6.998;2022-07-26T02:01:15;18.83;68.73
52656;SHT85;35474;51.032;6.998;2022-07-26T02:04:01;18.74;68.94
52656;SHT85;35474;51.032;6.998;2022-07-26T02:06:28;18.74;69.21
52656;SHT85;35474;51.032;6.998;2022-07-26T02:08:54;18.75;69.26
52656;SHT85;35474;51.032;6.998;2022-07-26T02:11:21;18.67;69.83
52656;SHT85;35474;51.032;6.998;2022-07-26T02:13:47;18.53;70.29
52656;SHT85;35474;51.032;6.998;2022-07-26T02:16:18;18.57;70.35
52656;SHT85;35474;51.032;6.998;2022-07-26T02:18:45;18.48;70.84
52656;SHT85;35474;51.032;6.998;2022-07-26T02:21:11;18.51;70.80
52656;SHT85;35474;51.032;6.998;2022-07-26T02:23:38;18.48;70.95
52656;SHT85;35474;51.032;6.998;2022-07-26T02:26:07;18.46;71.15
52656;SHT85;35474;51.032;6.998;2022-07-26T02:28:34;18.43;71.19
52656;SHT85;35474;51.032;6.998;2022-07-26T02:31:00;18.41;71.32
52656;SHT85;35474;51.032;6.998;2022-07-26T02:33:27;18.57;70.93
52656;SHT85;35474;51.032;6.998;2022-07-26T02:35:54;18.54;71.17
52656;SHT85;35474;51.032;6.998;2022-07-26T02:38:20;18.54;71.07
52656;SHT85;35474;51.032;6.998;2022-07-26T02:40:49;18.58;70.96
52656;SHT85;35474;51.032;6.998;2022-07-26T02:43:17;18.37;71.75
52656;SHT85;35474;51.032;6.998;2022-07-26T02:45:44;18.34;72.07
52656;SHT85;35474;51.032;6.998;2022-07-26T02:48:27;18.37;72.07
52656;SHT85;35474;51.032;6.998;2022-07-26T02:50:54;18.27;72.28
52656;SHT85;35474;51.032;6.998;2022-07-26T02:53:20;18.20;72.65
52656;SHT85;35474;51.032;6.998;2022-07-26T02:55:47;18.19;72.67
52656;SHT85;35474;51.032;6.998;2022-07-26T02:58:13;18.12;73.00
52656;SHT85;35474;51.032;6.998;2022-07-26T03:00:40;18.25;72.80
52656;SHT85;35474;51.032;6.998;2022-07-26T03:03:06;18.16;73.01
52656;SHT85;35474;51.032;6.998;2022-07-26T03:05:33;18.27;72.74
52656;SHT85;35474;51.032;6.998;2022-07-26T03:07:59;18.22;73.10
52656;SHT85;35474;51.032;6.998;2022-07-26T03:10:26;18.17;73.28
52656;SHT85;35474;51.032;6.998;2022-07-26T03:12:52;18.34;72.67
52656;SHT85;35474;51.032;6.998;2022-07-26T03:15:19;18.26;73.05
52656;SHT85;35474;51.032;6.998;2022-07-26T03:17:45;18.30;72.83
52656;SHT85;35474;51.032;6.998;2022-07-26T03:20:12;18.32;72.86
52656;SHT85;35474;51.032;6.998;2022-07-26T03:22:39;18.36;72.73
52656;SHT85;35474;51.032;6.998;2022-07-26T03:25:05;18.30;73.15
52656;SHT85;35474;51.032;6.998;2022-07-26T03:27:32;18.39;73.02
52656;SHT85;35474;51.032;6.998;2022-07-26T03:29:58;18.40;73.01
52656;SHT85;35474;51.032;6.998;2022-07-26T03:32:25;18.46;72.85
52656;SHT85;35474;51.032;6.998;2022-07-26T03:34:52;18.40;72.91
52656;SHT85;35474;51.032;6.998;2022-07-26T03:37:18;18.54;72.63
52656;SHT85;35474;51.032;6.998;2022-07-26T03:39:45;18.39;73.12
52656;SHT85;35474;51.032;6.998;2022-07-26T03:42:12;18.43;72.98
52656;SHT85;35474;51.032;6.998;2022-07-26T03:44:38;18.34;73.53
52656;SHT85;35474;51.032;6.998;2022-07-26T03:47:05;18.33;73.58
52656;SHT85;35474;51.032;6.998;2022-07-26T03:49:31;18.40;73.41
52656;SHT85;35474;51.032;6.998;2022-07-26T03:51:58;18.36;73.64
52656;SHT85;35474;51.032;6.998;2022-07-26T03:54:25;18.30;73.82
52656;SHT85;35474;51.032;6.998;2022-07-26T03:56:52;18.32;73.76
52656;SHT85;35474;51.032;6.998;2022-07-26T03:59:18;18.27;74.20
52656;SHT85;35474;51.032;6.998;2022-07-26T04:01:45;18.10;74.60
52656;SHT85;35474;51.032;6.998;2022-07-26T04:04:13;18.27;74.30
52656;SHT85;35474;51.032;6.998;2022-07-26T04:06:44;18.25;74.53
52656;SHT85;35474;51.032;6.998;2022-07-26T04:09:12;18.29;74.44
52656;SHT85;35474;51.032;6.998;2022-07-26T04:11:39;18.34;74.26
52656;SHT85;35474;51.032;6.998;2022-07-26T04:14:07;18.33;74.31
52656;SHT85;35474;51.032;6.998;2022-07-26T04:16:35;18.36;74.52
52656;SHT85;35474;51.032;6.998;2022-07-26T04:19:08;18.43;74.29
52656;SHT85;35474;51.032;6.998;2022-07-26T04:21:34;18.40;74.40
52656;SHT85;35474;51.032;6.998;2022-07-26T04:24:01;18.53;74.18
52656;SHT85;35474;51.032;6.998;2022-07-26T04:26:28;18.48;74.36
52656;SHT85;35474;51.032;6.998;2022-07-26T04:28:55;18.43;74.63
52656;SHT85;35474;51.032;6.998;2022-07-26T04:31:22;18.50;74.32
52656;SHT85;35474;51.032;6.998;2022-07-26T04:33:49;18.47;74.66
52656;SHT85;35474;51.032;6.998;2022-07-26T04:36:16;18.50;74.61
52656;SHT85;35474;51.032;6.998;2022-07-26T04:38:43;18.53;74.52
52656;SHT85;35474;51.032;6.998;2022-07-26T04:41:10;18.58;74.32
52656;SHT85;35474;51.032;6.998;2022-07-26T04:43:36;18.64;74.22
52656;SHT85;35474;51.032;6.998;2022-07-26T04:46:03;18.50;74.62
52656;SHT85;35474;51.032;6.998;2022-07-26T04:48:29;18.40;74.95
52656;SHT85;35474;51.032;6.998;2022-07-26T04:50:56;18.44;74.95
52656;SHT85;35474;51.032;6.998;2022-07-26T04:53:23;18.39;75.04
52656;SHT85;35474;51.032;6.998;2022-07-26T04:55:49;18.46;74.86
52656;SHT85;35474;51.032;6.998;2022-07-26T04:58:16;18.27;75.52
52656;SHT85;35474;51.032;6.998;2022-07-26T05:00:45;18.46;75.03
52656;SHT85;35474;51.032;6.998;2022-07-26T05:03:31;18.32;75.39
52656;SHT85;35474;51.032;6.998;2022-07-26T05:06:00;18.40;75.16
52656;SHT85;35474;51.032;6.998;2022-07-26T05:08:28;18.39;75.14
52656;SHT85;35474;51.032;6.998;2022-07-26T05:10:54;18.33;75.50
52656;SHT85;35474;51.032;6.998;2022-07-26T05:13:21;18.36;75.57
52656;SHT85;35474;51.032;6.998;2022-07-26T05:15:56;18.41;75.50
52656;SHT85;35474;51.032;6.998;2022-07-26T05:18:23;18.39;75.66
52656;SHT85;35474;51.032;6.998;2022-07-26T05:20:50;18.43;75.56
52656;SHT85;35474;51.032;6.998;2022-07-26T05:23:17;18.40;75.63
52656;SHT85;35474;51.032;6.998;2022-07-26T05:25:45;18.34;76.01
52656;SHT85;35474;51.032;6.998;2022-07-26T05:28:12;18.48;75.63
52656;SHT85;35474;51.032;6.998;2022-07-26T05:30:39;18.50;75.61
52656;SHT85;35474;51.032;6.998;2022-07-26T05:33:05;18.44;75.83
52656;SHT85;35474;51.032;6.998;2022-07-26T05:35:32;18.40;75.99
52656;SHT85;35474;51.032;6.998;2022-07-26T05:37:58;18.36;76.18
52656;SHT85;35474;51.032;6.998;2022-07-26T05:40:25;18.47;75.90
52656;SHT85;35474;51.032;6.998;2022-07-26T05:42:51;18.56;75.83
52656;SHT85;35474;51.032;6.998;2022-07-26T05:45:18;18.53;76.02
52656;SHT85;35474;51.032;6.998;2022-07-26T05:47:47;18.68;75.59
52656;SHT85;35474;51.032;6.998;2022-07-26T05:50:15;18.68;75.56
52656;SHT85;35474;51.032;6.998;2022-07-26T05:52:41;18.50;76.19
52656;SHT85;35474;51.032;6.998;2022-07-26T05:55:08;18.60;75.93
52656;SHT85;35474;51.032;6.998;2022-07-26T05:57:35;18.47;76.38
52656;SHT85;35474;51.032;6.998;2022-07-26T06:00:02;18.67;75.77
52656;SHT85;35474;51.032;6.998;2022-07-26T06:02:29;18.56;76.29
52656;SHT85;35474;51.032;6.998;2022-07-26T06:04:55;18.64;76.12
52656;SHT85;35474;51.032;6.998;2022-07-26T06:07:22;18.71;75.89
52656;SHT85;35474;51.032;6.998;2022-07-26T06:09:48;18.70;75.80
52656;SHT85;35474;51.032;6.998;2022-07-26T06:12:15;18.50;76.59
52656;SHT85;35474;51.032;6.998;2022-07-26T06:14:42;18.50;76.64
52656;SHT85;35474;51.032;6.998;2022-07-26T06:17:08;18.63;76.33
52656;SHT85;35474;51.032;6.998;2022-07-26T06:19:35;18.68;76.59
52656;SHT85;35474;51.032;6.998;2022-07-26T06:22:02;18.88;75.78
52656;SHT85;35474;51.032;6.998;2022-07-26T06:24:29;18.77;76.30
52656;SHT85;35474;51.032;6.998;2022-07-26T06:26:55;18.83;75.93
52656;SHT85;35474;51.032;6.998;2022-07-26T06:33:48;18.91;76.06
52656;SHT85;35474;51.032;6.998;2022-07-26T06:36:15;18.73;76.36
52656;SHT85;35474;51.032;6.998;2022-07-26T06:38:41;18.56;77.04
52656;SHT85;35474;51.032;6.998;2022-07-26T06:41:08;18.66;76.71
52656;SHT85;35474;51.032;6.998;2022-07-26T06:43:34;18.74;76.73
52656;SHT85;35474;51.032;6.998;2022-07-26T06:46:01;18.91;76.45
52656;SHT85;35474;51.032;6.998;2022-07-26T06:48:28;18.88;76.37
52656;SHT85;35474;51.032;6.998;2022-07-26T06:50:54;18.67;77.00
52656;SHT85;35474;51.032;6.998;2022-07-26T06:53:21;18.71;76.75
52656;SHT85;35474;51.032;6.998;2022-07-26T06:55:47;18.73;76.95
52656;SHT85;35474;51.032;6.998;2022-07-26T06:58:14;18.81;76.60
52656;SHT85;35474;51.032;6.998;2022-07-26T07:00:40;18.74;77.05
52656;SHT85;35474;51.032;6.998;2022-07-26T07:03:07;18.87;76.67
52656;SHT85;35474;51.032;6.998;2022-07-26T07:05:34;19.01;76.42
52656;SHT85;35474;51.032;6.998;2022-07-26T07:08:00;18.91;76.67
52656;SHT85;35474;51.032;6.998;2022-07-26T07:10:27;18.99;76.26
52656;SHT85;35474;51.032;6.998;2022-07-26T07:12:54;19.04;76.25
52656;SHT85;35474;51.032;6.998;2022-07-26T07:15:21;19.28;75.72
52656;SHT85;35474;51.032;6.998;2022-07-26T07:17:47;19.46;74.93
52656;SHT85;35474;51.032;6.998;2022-07-26T07:20:16;19.36;75.29
52656;SHT85;35474;51.032;6.998;2022-07-26T07:22:43;19.22;75.62
52656;SHT85;35474;51.032;6.998;2022-07-26T07:25:09;19.31;75.92
52656;SHT85;35474;51.032;6.998;2022-07-26T07:27:40;19.32;75.90
52656;SHT85;35474;51.032;6.998;2022-07-26T07:30:07;19.73;74.81
52656;SHT85;35474;51.032;6.998;2022-07-26T07:32:35;19.70;74.46
52656;SHT85;35474;51.032;6.998;2022-07-26T07:35:03;19.70;74.78
52656;SHT85;35474;51.032;6.998;2022-07-26T07:37:37;19.85;74.38
52656;SHT85;35474;51.032;6.998;2022-07-26T07:40:19;19.98;73.91
52656;SHT85;35474;51.032;6.998;2022-07-26T07:42:46;19.66;74.55
52656;SHT85;35474;51.032;6.998;2022-07-26T07:45:13;19.62;75.14
52656;SHT85;35474;51.032;6.998;2022-07-26T07:47:40;19.91;74.47
52656;SHT85;35474;51.032;6.998;2022-07-26T07:50:06;19.76;74.31
52656;SHT85;35474;51.032;6.998;2022-07-26T07:52:33;19.47;75.05
52656;SHT85;35474;51.032;6.998;2022-07-26T07:55:00;19.14;76.61
52656;SHT85;35474;51.032;6.998;2022-07-26T07:57:46;19.38;76.19
52656;SHT85;35474;51.032;6.998;2022-07-26T08:00:13;19.42;75.94
52656;SHT85;35474;51.032;6.998;2022-07-26T08:02:43;19.20;76.40
52656;SHT85;35474;51.032;6.998;2022-07-26T08:05:10;19.28;76.35
52656;SHT85;35474;51.032;6.998;2022-07-26T08:07:41;19.38;76.55
52656;SHT85;35474;51.032;6.998;2022-07-26T08:10:07;19.62;75.53
52656;SHT85;35474;51.032;6.998;2022-07-26T08:12:35;19.93;74.97
52656;SHT85;35474;51.032;6.998;2022-07-26T08:15:02;19.84;74.75
52656;SHT85;35474;51.032;6.998;2022-07-26T08:17:33;20.14;74.01
52656;SHT85;35474;51.032;6.998;2022-07-26T08:20:07;20.14;73.91
52656;SHT85;35474;51.032;6.998;2022-07-26T08:22:40;19.55;75.55
52656;SHT85;35474;51.032;6.998;2022-07-26T08:25:07;19.69;75.30
52656;SHT85;35474;51.032;6.998;2022-07-26T08:27:34;19.78;74.67
52656;SHT85;35474;51.032;6.998;2022-07-26T08:30:06;19.67;75.06
52656;SHT85;35474;51.032;6.998;2022-07-26T08:32:34;19.74;74.94
52656;SHT85;35474;51.032;6.998;2022-07-26T08:35:00;19.52;76.19
52656;SHT85;35474;51.032;6.998;2022-07-26T08:37:45;19.76;75.18
52656;SHT85;35474;51.032;6.998;2022-07-26T08:40:11;19.97;74.53
52656;SHT85;35474;51.032;6.998;2022-07-26T08:42:38;20.28;73.26
52656;SHT85;35474;51.032;6.998;2022-07-26T08:45:05;20.08;73.97
52656;SHT85;35474;51.032;6.998;2022-07-26T08:47:32;19.85;74.87
52656;SHT85;35474;51.032;6.998;2022-07-26T08:50:05;20.07;74.42
52656;SHT85;35474;51.032;6.998;2022-07-26T08:52:32;20.69;72.92
52656;SHT85;35474;51.032;6.998;2022-07-26T08:54:59;21.17;70.52
52656;SHT85;35474;51.032;6.998;2022-07-26T08:57:26;21.17;70.56
52656;SHT85;35474;51.032;6.998;2022-07-26T09:02:47;21.31;69.99
52656;SHT85;35474;51.032;6.998;2022-07-26T09:05:17;20.73;71.56
52656;SHT85;35474;51.032;6.998;2022-07-26T09:07:45;20.11;72.96
52656;SHT85;35474;51.032;6.998;2022-07-26T09:10:12;20.29;72.85
52656;SHT85;35474;51.032;6.998;2022-07-26T09:12:40;20.34;72.26
52656;SHT85;35474;51.032;6.998;2022-07-26T09:15:17;20.62;71.92
52656;SHT85;35474;51.032;6.998;2022-07-26T09:17:47;21.00;70.73
52656;SHT85;35474;51.032;6.998;2022-07-26T09:20:18;21.41;69.24
52656;SHT85;35474;51.032;6.998;2022-07-26T09:25:27;21.96;67.86
52656;SHT85;35474;51.032;6.998;2022-07-26T09:27:56;21.44;68.50
52656;SHT85;35474;51.032;6.998;2022-07-26T09:30:25;20.99;69.83
52656;SHT85;35474;51.032;6.998;2022-07-26T09:33:00;20.90;70.17
52656;SHT85;35474;51.032;6.998;2022-07-26T09:35:30;21.02;69.57
52656;SHT85;35474;51.032;6.998;2022-07-26T09:38:17;21.20;68.66
52656;SHT85;35474;51.032;6.998;2022-07-26T09:40:44;21.04;68.69
52656;SHT85;35474;51.032;6.998;2022-07-26T09:43:17;20.99;68.29
52656;SHT85;35474;51.032;6.998;2022-07-26T09:46:00;20.96;68.15
52656;SHT85;35474;51.032;6.998;2022-07-26T09:48:30;21.20;67.59
52656;SHT85;35474;51.032;6.998;2022-07-26T09:51:37;21.28;66.86
52656;SHT85;35474;51.032;6.998;2022-07-26T09:54:06;21.78;65.76
52656;SHT85;35474;51.032;6.998;2022-07-26T09:57:08;22.27;64.89
52656;SHT85;35474;51.032;6.998;2022-07-26T09:59:28;22.39;64.39
52656;SHT85;35474;51.032;6.998;2022-07-26T10:01:56;22.48;63.33
52656;SHT85;35474;51.032;6.998;2022-07-26T10:04:24;22.16;64.74
52656;SHT85;35474;51.032;6.998;2022-07-26T10:06:52;22.12;63.54
52656;SHT85;35474;51.032;6.998;2022-07-26T10:09:19;22.84;62.42
52656;SHT85;35474;51.032;6.998;2022-07-26T10:11:49;24.34;58.56
52656;SHT85;35474;51.032;6.998;2022-07-26T10:22:26;23.29;60.80
52656;SHT85;35474;51.032;6.998;2022-07-26T10:27:45;22.77;59.23
52656;SHT85;35474;51.032;6.998;2022-07-26T10:38:06;25.22;53.09
52656;SHT85;35474;51.032;6.998;2022-07-26T10:40:35;25.94;51.28
52656;SHT85;35474;51.032;6.998;2022-07-26T10:43:13;25.06;51.97
52656;SHT85;35474;51.032;6.998;2022-07-26T10:49:05;25.20;51.20
52656;SHT85;35474;51.032;6.998;2022-07-26T10:51:36;24.86;53.49
52656;SHT85;35474;51.032;6.998;2022-07-26T10:54:08;24.55;54.18
52656;SHT85;35474;51.032;6.998;2022-07-26T10:56:37;26.25;49.28
52656;SHT85;35474;51.032;6.998;2022-07-26T10:59:04;25.64;49.86
52656;SHT85;35474;51.032;6.998;2022-07-26T11:01:35;24.17;54.00
52656;SHT85;35474;51.032;6.998;2022-07-26T11:04:04;23.11;55.87
52656;SHT85;35474;51.032;6.998;2022-07-26T11:06:31;23.36;54.36
52656;SHT85;35474;51.032;6.998;2022-07-26T11:08:58;23.50;53.19
52656;SHT85;35474;51.032;6.998;2022-07-26T11:11:35;23.70;52.81
52656;SHT85;35474;51.032;6.998;2022-07-26T11:14:04;23.84;52.44
52656;SHT85;35474;51.032;6.998;2022-07-26T11:16:37;23.61;53.35
52656;SHT85;35474;51.032;6.998;2022-07-26T11:21:45;22.84;55.04
52656;SHT85;35474;51.032;6.998;2022-07-26T11:24:18;22.97;54.66
52656;SHT85;35474;51.032;6.998;2022-07-26T11:26:47;25.57;49.00
52656;SHT85;35474;51.032;6.998;2022-07-26T11:29:13;25.06;50.08
52656;SHT85;35474;51.032;6.998;2022-07-26T11:31:44;25.00;49.47
52656;SHT85;35474;51.032;6.998;2022-07-26T11:34:27;24.51;49.25
52656;SHT85;35474;51.032;6.998;2022-07-26T11:36:56;26.07;46.40
52656;SHT85;35474;51.032;6.998;2022-07-26T11:39:24;25.70;45.59
52656;SHT85;35474;51.032;6.998;2022-07-26T11:41:57;25.22;46.92
52656;SHT85;35474;51.032;6.998;2022-07-26T11:44:30;26.83;44.95
52656;SHT85;35474;51.032;6.998;2022-07-26T11:46:57;26.11;45.89
52656;SHT85;35474;51.032;6.998;2022-07-26T11:49:28;26.39;45.91
52656;SHT85;35474;51.032;6.998;2022-07-26T11:52:16;24.45;50.53
52656;SHT85;35474;51.032;6.998;2022-07-26T11:54:51;23.82;51.72
52656;SHT85;35474;51.032;6.998;2022-07-26T11:57:18;24.05;52.24
52656;SHT85;35474;51.032;6.998;2022-07-26T11:59:46;23.49;55.31
52656;SHT85;35474;51.032;6.998;2022-07-26T12:02:15;23.55;55.96
52656;SHT85;35474;51.032;6.998;2022-07-26T12:04:42;23.31;57.13
52656;SHT85;35474;51.032;6.998;2022-07-26T12:07:13;23.10;57.77
52656;SHT85;35474;51.032;6.998;2022-07-26T12:12:25;23.38;57.76
52656;SHT85;35474;51.032;6.998;2022-07-26T12:14:57;23.41;57.82
52656;SHT85;35474;51.032;6.998;2022-07-26T12:17:25;23.52;57.02
52656;SHT85;35474;51.032;6.998;2022-07-26T12:20:13;23.25;58.28
52656;SHT85;35474;51.032;6.998;2022-07-26T12:22:58;22.90;58.70
52656;SHT85;35474;51.032;6.998;2022-07-26T12:25:31;22.74;59.10
52656;SHT85;35474;51.032;6.998;2022-07-26T12:27:57;23.97;56.49
52656;SHT85;35474;51.032;6.998;2022-07-26T12:30:24;24.18;55.64
52656;SHT85;35474;51.032;6.998;2022-07-26T12:32:59;25.10;52.74
52656;SHT85;35474;51.032;6.998;2022-07-26T12:35:28;26.60;49.59
52656;SHT85;35474;51.032;6.998;2022-07-26T12:38:02;26.53;48.78
52656;SHT85;35474;51.032;6.998;2022-07-26T12:40:30;25.55;51.48
52656;SHT85;35474;51.032;6.998;2022-07-26T12:43:06;25.03;52.97
52656;SHT85;35474;51.032;6.998;2022-07-26T12:45:33;23.87;54.95
52656;SHT85;35474;51.032;6.998;2022-07-26T12:48:02;23.50;56.43
52656;SHT85;35474;51.032;6.998;2022-07-26T12:50:36;23.86;55.83
52656;SHT85;35474;51.032;6.998;2022-07-26T12:53:03;24.10;55.21
52656;SHT85;35474;51.032;6.998;2022-07-26T12:55:32;24.25;55.17
52656;SHT85;35474;51.032;6.998;2022-07-26T12:57:59;24.51;54.77
52656;SHT85;35474;51.032;6.998;2022-07-26T13:00:26;23.94;56.65
52656;SHT85;35474;51.032;6.998;2022-07-26T13:02:55;24.68;55.06
52656;SHT85;35474;51.032;6.998;2022-07-26T13:05:22;26.57;50.43
52656;SHT85;35474;51.032;6.998;2022-07-26T13:07:48;28.39;46.12
52656;SHT85;35474;51.032;6.998;2022-07-26T13:10:16;28.54;44.83
52656;SHT85;35474;51.032;6.998;2022-07-26T13:13:01;28.92;44.36
52656;SHT85;35474;51.032;6.998;2022-07-26T13:15:28;28.36;44.52
52656;SHT85;35474;51.032;6.998;2022-07-26T13:18:03;28.29;45.29
52656;SHT85;35474;51.032;6.998;2022-07-26T13:20:35;29.56;42.69
52656;SHT85;35474;51.032;6.998;2022-07-26T13:23:02;29.57;41.98
52656;SHT85;35474;51.032;6.998;2022-07-26T13:25:29;26.24;46.92
52656;SHT85;35474;51.032;6.998;2022-07-26T13:28:05;28.30;43.91
52656;SHT85;35474;51.032;6.998;2022-07-26T13:30:32;28.48;43.39
52656;SHT85;35474;51.032;6.998;2022-07-26T13:32:59;28.30;43.81
52656;SHT85;35474;51.032;6.998;2022-07-26T13:35:25;27.72;45.31
52656;SHT85;35474;51.032;6.998;2022-07-26T13:37:52;27.27;46.04
52656;SHT85;35474;51.032;6.998;2022-07-26T13:40:18;27.46;45.24
52656;SHT85;35474;51.032;6.998;2022-07-26T13:42:45;27.48;45.47
52656;SHT85;35474;51.032;6.998;2022-07-26T13:45:14;26.46;48.08
52656;SHT85;35474;51.032;6.998;2022-07-26T13:47:41;26.74;46.74
52656;SHT85;35474;51.032;6.998;2022-07-26T13:50:08;27.86;45.23
52656;SHT85;35474;51.032;6.998;2022-07-26T13:52:35;28.04;44.45
52656;SHT85;35474;51.032;6.998;2022-07-26T13:55:02;28.82;43.62
52656;SHT85;35474;51.032;6.998;2022-07-26T13:57:31;29.09;42.77
52656;SHT85;35474;51.032;6.998;2022-07-26T14:00:18;27.66;45.36
52656;SHT85;35474;51.032;6.998;2022-07-26T14:02:45;27.54;44.85
52656;SHT85;35474;51.032;6.998;2022-07-26T14:05:12;27.24;45.66
52656;SHT85;35474;51.032;6.998;2022-07-26T14:07:38;26.46;46.78
52656;SHT85;35474;51.032;6.998;2022-07-26T14:10:05;26.36;47.15
52656;SHT85;35474;51.032;6.998;2022-07-26T14:12:32;26.60;47.16
52656;SHT85;35474;51.032;6.998;2022-07-26T14:14:59;26.60;47.48
52656;SHT85;35474;51.032;6.998;2022-07-26T14:17:26;25.47;49.21
52656;SHT85;35474;51.032;6.998;2022-07-26T14:19:52;24.92;51.55
52656;SHT85;35474;51.032;6.998;2022-07-26T14:22:19;24.52;53.10
52656;SHT85;35474;51.032;6.998;2022-07-26T14:24:45;24.88;52.70
52656;SHT85;35474;51.032;6.998;2022-07-26T14:27:12;24.86;52.54
52656;SHT85;35474;51.032;6.998;2022-07-26T14:29:39;24.18;54.14
52656;SHT85;35474;51.032;6.998;2022-07-26T14:32:05;24.09;54.50
52656;SHT85;35474;51.032;6.998;2022-07-26T14:34:32;23.65;54.89
52656;SHT85;35474;51.032;6.998;2022-07-26T14:36:58;23.52;55.72
52656;SHT85;35474;51.032;6.998;2022-07-26T14:39:25;23.47;55.67
52656;SHT85;35474;51.032;6.998;2022-07-26T14:41:51;23.74;55.11
52656;SHT85;35474;51.032;6.998;2022-07-26T14:44:18;24.10;54.36
52656;SHT85;35474;51.032;6.998;2022-07-26T14:46:44;24.31;53.68
52656;SHT85;35474;51.032;6.998;2022-07-26T14:49:11;24.11;53.89
52656;SHT85;35474;51.032;6.998;2022-07-26T14:51:38;23.82;54.67
52656;SHT85;35474;51.032;6.998;2022-07-26T14:54:05;24.61;52.94
52656;SHT85;35474;51.032;6.998;2022-07-26T14:56:31;25.87;49.94
52656;SHT85;35474;51.032;6.998;2022-07-26T14:58:58;25.06;51.60
52656;SHT85;35474;51.032;6.998;2022-07-26T15:01:24;24.27;53.91
52656;SHT85;35474;51.032;6.998;2022-07-26T15:03:51;23.63;55.87
52656;SHT85;35474;51.032;6.998;2022-07-26T15:06:17;24.07;55.09
52656;SHT85;35474;51.032;6.998;2022-07-26T15:08:44;23.93;55.27
52656;SHT85;35474;51.032;6.998;2022-07-26T15:11:10;23.86;55.11
52656;SHT85;35474;51.032;6.998;2022-07-26T15:13:37;23.80;55.00
52656;SHT85;35474;51.032;6.998;2022-07-26T15:16:03;23.84;55.19
52656;SHT85;35474;51.032;6.998;2022-07-26T15:18:30;23.74;55.53
52656;SHT85;35474;51.032;6.998;2022-07-26T15:20:57;23.55;56.05
52656;SHT85;35474;51.032;6.998;2022-07-26T15:23:24;23.73;55.80
52656;SHT85;35474;51.032;6.998;2022-07-26T15:25:51;23.56;56.23
52656;SHT85;35474;51.032;6.998;2022-07-26T15:28:17;23.34;57.04
52656;SHT85;35474;51.032;6.998;2022-07-26T15:30:44;23.15;57.91
52656;SHT85;35474;51.032;6.998;2022-07-26T15:33:11;23.24;57.81
52656;SHT85;35474;51.032;6.998;2022-07-26T15:35:39;23.07;58.20
52656;SHT85;35474;51.032;6.998;2022-07-26T15:38:06;22.91;58.55
52656;SHT85;35474;51.032;6.998;2022-07-26T15:40:33;22.95;58.41
52656;SHT85;35474;51.032;6.998;2022-07-26T15:43:00;23.08;58.09
52656;SHT85;35474;51.032;6.998;2022-07-26T15:45:27;23.01;57.89
52656;SHT85;35474;51.032;6.998;2022-07-26T15:47:55;23.05;57.40
52656;SHT85;35474;51.032;6.998;2022-07-26T15:50:39;23.07;57.36
52656;SHT85;35474;51.032;6.998;2022-07-26T15:53:07;23.01;57.54
52656;SHT85;35474;51.032;6.998;2022-07-26T15:55:34;23.22;57.35
52656;SHT85;35474;51.032;6.998;2022-07-26T15:58:00;23.14;57.34
52656;SHT85;35474;51.032;6.998;2022-07-26T16:00:27;23.32;56.60
52656;SHT85;35474;51.032;6.998;2022-07-26T16:02:53;22.98;56.76
52656;SHT85;35474;51.032;6.998;2022-07-26T16:05:20;23.08;56.50
52656;SHT85;35474;51.032;6.998;2022-07-26T16:07:46;23.26;56.03
52656;SHT85;35474;51.032;6.998;2022-07-26T16:10:13;22.95;56.50
52656;SHT85;35474;51.032;6.998;2022-07-26T16:12:41;23.41;55.62
52656;SHT85;35474;51.032;6.998;2022-07-26T16:15:09;23.18;55.90